sensor_id;sensor_type;location;lat;lon;timestamp;temperature;humidity
1123;DHT22;548;48.778;9.252;2022-10-22T00:02:13;14.50;99.90
1123;DHT22;548;48.778;9.252;2022-10-22T00:04:44;14.50;99.90
1123;DHT22;548;48.778;9.252;2022-10-22T00:07:11;14.20;99.90
1123;DHT22;548;48.778;9.252;2022-10-22T00:09:39;14.40;99.90
1123;DHT22;548;48.778;9.252;2022-10-22T00:12:06;14.10;99.90
1123;DHT22;548;48.778;9.252;2022-10-22T00:14:33;14.40;99.90
1123;DHT22;548;48.778;9.252;2022-10-22T00:17:00;14.50;99.90
1123;DHT22;548;48.778;9.252;2022-10-22T00:21:54;14.20;99.90
1123;DHT22;548;48.778;9.252;2022-10-22T00:26:49;14.30;99.90
1123;DHT22;548;48.778;9.252;2022-10-22T00:29:16;14.00;99.90
1123;DHT22;548;48.778;9.252;2022-10-22T00:31:44;14.00;99.90
1123;DHT22;548;48.778;9.252;2022-10-22T00:36:41;14.30;99.90
1123;DHT22;548;48.778;9.252;2022-10-22T00:44:05;14.10;99.90
1123;DHT22;548;48.778;9.252;2022-10-22T00:49:02;14.40;99.90
1123;DHT22;548;48.778;9.252;2022-10-22T00:51:31;13.90;99.90
1123;DHT22;548;48.778;9.252;2022-10-22T00:54:02;13.90;99.90
1123;DHT22;548;48.778;9.252;2022-10-22T00:56:30;14.10;99.90
1123;DHT22;548;48.778;9.252;2022-10-22T00:58:59;14.20;99.90
1123;DHT22;548;48.778;9.252;2022-10-22T01:01:29;14.10;99.90
1123;DHT22;548;48.778;9.252;2022-10-22T01:03:57;14.10;99.90
1123;DHT22;548;48.778;9.252;2022-10-22T01:06:26;14.20;99.90
1123;DHT22;548;48.778;9.252;2022-10-22T01:09:00;14.20;99.90
1123;DHT22;548;48.778;9.252;2022-10-22T01:11:34;14.60;99.90
1123;DHT22;548;48.778;9.252;2022-10-22T01:14:12;14.40;99.90
1123;DHT22;548;48.778;9.252;2022-10-22T01:16:47;13.90;99.90
1123;DHT22;548;48.778;9.252;2022-10-22T01:22:15;14.10;99.90
1123;DHT22;548;48.778;9.252;2022-10-22T01:24:55;14.10;99.90
1123;DHT22;548;48.778;9.252;2022-10-22T01:27:28;14.10;99.90
1123;DHT22;548;48.778;9.252;2022-10-22T01:30:01;14.00;99.90
1123;DHT22;548;48.778;9.252;2022-10-22T01:32:31;13.80;99.90
1123;DHT22;548;48.778;9.252;2022-10-22T01:35:02;14.00;99.90
1123;DHT22;548;48.778;9.252;2022-10-22T01:37:31;13.80;99.90
1123;DHT22;548;48.778;9.252;2022-10-22T01:40:00;14.00;99.90
1123;DHT22;548;48.778;9.252;2022-10-22T01:42:27;14.10;99.90
1123;DHT22;548;48.778;9.252;2022-10-22T01:47:30;14.20;99.90
1123;DHT22;548;48.778;9.252;2022-10-22T01:50:22;13.80;99.90
1123;DHT22;548;48.778;9.252;2022-10-22T01:53:21;14.20;99.90
1123;DHT22;548;48.778;9.252;2022-10-22T01:56:03;14.10;99.90
1123;DHT22;548;48.778;9.252;2022-10-22T01:58:38;13.90;99.90
1123;DHT22;548;48.778;9.252;2022-10-22T02:01:14;14.00;99.90
1123;DHT22;548;48.778;9.252;2022-10-22T02:03:50;14.20;99.90
1123;DHT22;548;48.778;9.252;2022-10-22T02:06:19;14.10;99.90
1123;DHT22;548;48.778;9.252;2022-10-22T02:08:48;14.20;99.90
1123;DHT22;548;48.778;9.252;2022-10-22T02:11:16;14.10;99.90
1123;DHT22;548;48.778;9.252;2022-10-22T02:13:46;14.10;99.90
1123;DHT22;548;48.778;9.252;2022-10-22T02:16:18;14.10;99.90
1123;DHT22;548;48.778;9.252;2022-10-22T02:18:49;14.00;99.90
1123;DHT22;548;48.778;9.252;2022-10-22T02:21:17;14.00;99.90
1123;DHT22;548;48.778;9.252;2022-10-22T02:23:44;14.20;99.90
1123;DHT22;548;48.778;9.252;2022-10-22T02:26:17;14.40;99.90
1123;DHT22;548;48.778;9.252;2022-10-22T02:28:51;14.10;99.90
1123;DHT22;548;48.778;9.252;2022-10-22T02:31:22;14.20;99.90
1123;DHT22;548;48.778;9.252;2022-10-22T02:33:54;14.10;99.90
1123;DHT22;548;48.778;9.252;2022-10-22T02:36:23;14.10;99.90
1123;DHT22;548;48.778;9.252;2022-10-22T02:38:50;14.20;99.90
1123;DHT22;548;48.778;9.252;2022-10-22T02:41:18;14.40;99.90
1123;DHT22;548;48.778;9.252;2022-10-22T02:43:49;14.20;99.90
1123;DHT22;548;48.778;9.252;2022-10-22T02:46:17;14.20;99.90
1123;DHT22;548;48.778;9.252;2022-10-22T02:48:43;14.40;99.90
1123;DHT22;548;48.778;9.252;2022-10-22T02:51:12;14.40;99.90
1123;DHT22;548;48.778;9.252;2022-10-22T02:53:39;14.30;99.90
1123;DHT22;548;48.778;9.252;2022-10-22T02:56:06;14.60;99.90
1123;DHT22;548;48.778;9.252;2022-10-22T02:58:33;14.50;99.90
1123;DHT22;548;48.778;9.252;2022-10-22T03:00:59;14.50;99.90
1123;DHT22;548;48.778;9.252;2022-10-22T03:03:26;14.60;99.90
1123;DHT22;548;48.778;9.252;2022-10-22T03:05:53;14.70;99.90
1123;DHT22;548;48.778;9.252;2022-10-22T03:08:21;14.70;99.90
1123;DHT22;548;48.778;9.252;2022-10-22T03:13:15;14.50;99.90
1123;DHT22;548;48.778;9.252;2022-10-22T03:15:42;14.60;99.90
1123;DHT22;548;48.778;9.252;2022-10-22T03:18:08;14.60;99.90
1123;DHT22;548;48.778;9.252;2022-10-22T03:20:35;14.60;99.90
1123;DHT22;548;48.778;9.252;2022-10-22T03:23:02;14.80;99.90
1123;DHT22;548;48.778;9.252;2022-10-22T03:25:31;14.60;99.90
1123;DHT22;548;48.778;9.252;2022-10-22T03:28:01;14.60;99.90
1123;DHT22;548;48.778;9.252;2022-10-22T03:30:28;14.50;99.90
1123;DHT22;548;48.778;9.252;2022-10-22T03:32:55;15.10;99.90
1123;DHT22;548;48.778;9.252;2022-10-22T03:35:22;14.60;99.90
1123;DHT22;548;48.778;9.252;2022-10-22T03:37:49;14.70;99.90
1123;DHT22;548;48.778;9.252;2022-10-22T03:40:17;14.50;99.90
1123;DHT22;548;48.778;9.252;2022-10-22T03:42:45;14.40;99.90
1123;DHT22;548;48.778;9.252;2022-10-22T03:45:12;14.50;99.90
1123;DHT22;548;48.778;9.252;2022-10-22T03:47:39;14.70;99.90
1123;DHT22;548;48.778;9.252;2022-10-22T03:50:07;14.40;99.90
1123;DHT22;548;48.778;9.252;2022-10-22T03:52:35;14.60;99.90
1123;DHT22;548;48.778;9.252;2022-10-22T03:55:03;14.90;99.90
1123;DHT22;548;48.778;9.252;2022-10-22T03:57:30;14.60;99.90
1123;DHT22;548;48.778;9.252;2022-10-22T03:59:58;14.60;99.90
1123;DHT22;548;48.778;9.252;2022-10-22T04:02:25;14.50;99.90
1123;DHT22;548;48.778;9.252;2022-10-22T04:04:52;14.50;99.90
1123;DHT22;548;48.778;9.252;2022-10-22T04:07:18;14.50;99.90
1123;DHT22;548;48.778;9.252;2022-10-22T04:09:45;13.70;99.90
1123;DHT22;548;48.778;9.252;2022-10-22T04:12:12;14.60;99.90
1123;DHT22;548;48.778;9.252;2022-10-22T04:14:38;14.60;99.90
1123;DHT22;548;48.778;9.252;2022-10-22T04:17:07;14.60;99.90
1123;DHT22;548;48.778;9.252;2022-10-22T04:19:33;14.50;99.90
1123;DHT22;548;48.778;9.252;2022-10-22T04:22:00;14.70;99.90
1123;DHT22;548;48.778;9.252;2022-10-22T04:24:28;14.60;99.90
1123;DHT22;548;48.778;9.252;2022-10-22T04:26:55;14.60;99.90
1123;DHT22;548;48.778;9.252;2022-10-22T04:29:22;14.50;99.90
1123;DHT22;548;48.778;9.252;2022-10-22T04:31:49;14.40;99.90
1123;DHT22;548;48.778;9.252;2022-10-22T04:34:17;14.40;99.90
1123;DHT22;548;48.778;9.252;2022-10-22T04:36:44;14.10;99.90
1123;DHT22;548;48.778;9.252;2022-10-22T04:39:13;13.90;99.90
1123;DHT22;548;48.778;9.252;2022-10-22T04:41:40;14.40;99.90
1123;DHT22;548;48.778;9.252;2022-10-22T04:44:07;14.30;99.90
1123;DHT22;548;48.778;9.252;2022-10-22T04:46:34;14.30;99.90
1123;DHT22;548;48.778;9.252;2022-10-22T04:49:01;14.40;99.90
1123;DHT22;548;48.778;9.252;2022-10-22T04:51:32;14.30;99.90
1123;DHT22;548;48.778;9.252;2022-10-22T04:53:59;14.30;99.90
1123;DHT22;548;48.778;9.252;2022-10-22T04:56:27;14.40;99.90
1123;DHT22;548;48.778;9.252;2022-10-22T04:58:56;14.10;99.90
1123;DHT22;548;48.778;9.252;2022-10-22T05:01:25;14.20;99.90
1123;DHT22;548;48.778;9.252;2022-10-22T05:03:54;14.30;99.90
1123;DHT22;548;48.778;9.252;2022-10-22T05:06:21;14.20;99.90
1123;DHT22;548;48.778;9.252;2022-10-22T05:08:54;14.20;99.90
1123;DHT22;548;48.778;9.252;2022-10-22T05:11:24;14.30;99.90
1123;DHT22;548;48.778;9.252;2022-10-22T05:13:52;14.40;99.90
1123;DHT22;548;48.778;9.252;2022-10-22T05:16:19;14.30;99.90
1123;DHT22;548;48.778;9.252;2022-10-22T05:18:46;14.30;99.90
1123;DHT22;548;48.778;9.252;2022-10-22T05:21:14;14.40;99.90
1123;DHT22;548;48.778;9.252;2022-10-22T05:23:42;14.30;99.90
1123;DHT22;548;48.778;9.252;2022-10-22T05:26:11;14.10;99.90
1123;DHT22;548;48.778;9.252;2022-10-22T05:31:07;14.50;99.90
1123;DHT22;548;48.778;9.252;2022-10-22T05:33:36;14.50;99.90
1123;DHT22;548;48.778;9.252;2022-10-22T05:36:04;14.60;99.90
1123;DHT22;548;48.778;9.252;2022-10-22T05:38:33;14.70;99.90
1123;DHT22;548;48.778;9.252;2022-10-22T05:41:00;14.70;99.90
1123;DHT22;548;48.778;9.252;2022-10-22T05:43:31;14.90;99.90
1123;DHT22;548;48.778;9.252;2022-10-22T05:46:01;15.20;99.90
1123;DHT22;548;48.778;9.252;2022-10-22T05:48:28;15.00;99.90
1123;DHT22;548;48.778;9.252;2022-10-22T05:50:55;15.00;99.90
1123;DHT22;548;48.778;9.252;2022-10-22T05:55:49;14.80;99.90
1123;DHT22;548;48.778;9.252;2022-10-22T05:58:15;15.10;99.90
1123;DHT22;548;48.778;9.252;2022-10-22T06:00:43;15.50;99.90
1123;DHT22;548;48.778;9.252;2022-10-22T06:03:10;15.10;99.90
1123;DHT22;548;48.778;9.252;2022-10-22T06:05:37;15.00;99.90
1123;DHT22;548;48.778;9.252;2022-10-22T06:08:04;14.90;99.90
1123;DHT22;548;48.778;9.252;2022-10-22T06:10:31;14.80;99.90
1123;DHT22;548;48.778;9.252;2022-10-22T06:12:58;17.20;99.90
1123;DHT22;548;48.778;9.252;2022-10-22T06:15:26;14.90;99.90
1123;DHT22;548;48.778;9.252;2022-10-22T06:17:54;15.00;99.90
1123;DHT22;548;48.778;9.252;2022-10-22T06:20:20;14.90;99.90
1123;DHT22;548;48.778;9.252;2022-10-22T06:22:47;14.80;99.90
1123;DHT22;548;48.778;9.252;2022-10-22T06:25:14;15.00;99.90
1123;DHT22;548;48.778;9.252;2022-10-22T06:27:41;14.80;99.90
1123;DHT22;548;48.778;9.252;2022-10-22T06:30:08;14.70;99.90
1123;DHT22;548;48.778;9.252;2022-10-22T06:32:35;14.40;99.90
1123;DHT22;548;48.778;9.252;2022-10-22T06:35:04;14.80;99.90
1123;DHT22;548;48.778;9.252;2022-10-22T06:37:31;14.40;99.90
1123;DHT22;548;48.778;9.252;2022-10-22T06:40:01;14.30;99.90
1123;DHT22;548;48.778;9.252;2022-10-22T06:42:28;14.70;99.90
1123;DHT22;548;48.778;9.252;2022-10-22T06:44:54;14.50;99.90
1123;DHT22;548;48.778;9.252;2022-10-22T06:47:21;14.70;99.90
1123;DHT22;548;48.778;9.252;2022-10-22T06:49:51;14.60;99.90
1123;DHT22;548;48.778;9.252;2022-10-22T06:52:21;14.60;99.90
1123;DHT22;548;48.778;9.252;2022-10-22T06:54:47;14.70;99.90
1123;DHT22;548;48.778;9.252;2022-10-22T06:57:14;14.80;99.90
1123;DHT22;548;48.778;9.252;2022-10-22T07:02:08;14.90;99.90
1123;DHT22;548;48.778;9.252;2022-10-22T07:04:35;15.10;99.90
1123;DHT22;548;48.778;9.252;2022-10-22T07:09:30;15.10;99.90
1123;DHT22;548;48.778;9.252;2022-10-22T07:14:25;15.20;99.90
1123;DHT22;548;48.778;9.252;2022-10-22T07:16:51;15.10;99.90
1123;DHT22;548;48.778;9.252;2022-10-22T07:19:19;15.40;99.90
1123;DHT22;548;48.778;9.252;2022-10-22T07:24:15;15.70;99.90
1123;DHT22;548;48.778;9.252;2022-10-22T07:26:43;15.60;99.90
1123;DHT22;548;48.778;9.252;2022-10-22T07:58:17;16.30;99.90
1123;DHT22;548;48.778;9.252;2022-10-22T08:12:48;16.50;99.90
1123;DHT22;548;48.778;9.252;2022-10-22T08:37:38;17.60;99.90
1123;DHT22;548;48.778;9.252;2022-10-22T08:40:24;17.60;99.90
1123;DHT22;548;48.778;9.252;2022-10-22T09:27:03;23.60;99.90
1123;DHT22;548;48.778;9.252;2022-10-22T09:32:38;23.60;99.90
1123;DHT22;548;48.778;9.252;2022-10-22T09:38:07;24.20;99.90
1123;DHT22;548;48.778;9.252;2022-10-22T09:40:43;23.80;99.90
1123;DHT22;548;48.778;9.252;2022-10-22T09:43:12;24.00;99.90
1123;DHT22;548;48.778;9.252;2022-10-22T09:45:40;24.00;99.90
1123;DHT22;548;48.778;9.252;2022-10-22T09:48:11;23.70;99.90
1123;DHT22;548;48.778;9.252;2022-10-22T09:50:43;23.60;99.90
1123;DHT22;548;48.778;9.252;2022-10-22T09:53:13;23.60;99.90
1123;DHT22;548;48.778;9.252;2022-10-22T09:55:49;23.60;99.90
1123;DHT22;548;48.778;9.252;2022-10-22T09:58:16;24.20;99.90
1123;DHT22;548;48.778;9.252;2022-10-22T10:00:46;24.40;99.90
1123;DHT22;548;48.778;9.252;2022-10-22T10:03:16;25.40;99.40
1123;DHT22;548;48.778;9.252;2022-10-22T10:05:46;25.70;97.40
1123;DHT22;548;48.778;9.252;2022-10-22T10:08:15;25.80;97.40
1123;DHT22;548;48.778;9.252;2022-10-22T10:10:46;25.80;97.00
1123;DHT22;548;48.778;9.252;2022-10-22T10:13:37;25.60;97.70
1123;DHT22;548;48.778;9.252;2022-10-22T10:16:17;26.60;96.30
1123;DHT22;548;48.778;9.252;2022-10-22T10:19:06;27.60;94.90
1123;DHT22;548;48.778;9.252;2022-10-22T10:21:44;27.90;92.30
1123;DHT22;548;48.778;9.252;2022-10-22T10:24:17;27.20;93.20
1123;DHT22;548;48.778;9.252;2022-10-22T10:26:54;26.20;95.30
1123;DHT22;548;48.778;9.252;2022-10-22T10:29:33;25.90;96.30
1123;DHT22;548;48.778;9.252;2022-10-22T10:32:14;25.80;96.70
1123;DHT22;548;48.778;9.252;2022-10-22T10:34:49;25.90;95.30
1123;DHT22;548;48.778;9.252;2022-10-22T10:37:21;26.40;95.10
1123;DHT22;548;48.778;9.252;2022-10-22T10:40:10;27.20;94.30
1123;DHT22;548;48.778;9.252;2022-10-22T10:42:43;29.20;91.70
1123;DHT22;548;48.778;9.252;2022-10-22T10:45:16;30.20;86.40
1123;DHT22;548;48.778;9.252;2022-10-22T10:48:14;30.10;83.50
1123;DHT22;548;48.778;9.252;2022-10-22T10:51:05;31.10;79.20
1123;DHT22;548;48.778;9.252;2022-10-22T10:53:42;29.80;81.30
1123;DHT22;548;48.778;9.252;2022-10-22T10:56:24;28.80;85.20
1123;DHT22;548;48.778;9.252;2022-10-22T10:59:00;28.80;91.30
1123;DHT22;548;48.778;9.252;2022-10-22T11:01:36;28.90;86.70
1123;DHT22;548;48.778;9.252;2022-10-22T11:04:37;28.50;85.50
1123;DHT22;548;48.778;9.252;2022-10-22T11:07:10;28.40;83.40
1123;DHT22;548;48.778;9.252;2022-10-22T11:09:42;28.40;84.10
1123;DHT22;548;48.778;9.252;2022-10-22T11:12:14;29.10;80.90
1123;DHT22;548;48.778;9.252;2022-10-22T11:14:53;30.00;77.50
1123;DHT22;548;48.778;9.252;2022-10-22T11:17:22;31.00;73.70
1123;DHT22;548;48.778;9.252;2022-10-22T11:19:55;31.40;72.90
1123;DHT22;548;48.778;9.252;2022-10-22T11:22:29;31.50;71.50
1123;DHT22;548;48.778;9.252;2022-10-22T11:25:02;31.60;71.10
1123;DHT22;548;48.778;9.252;2022-10-22T11:27:35;31.50;69.30
1123;DHT22;548;48.778;9.252;2022-10-22T11:30:10;32.70;66.80
1123;DHT22;548;48.778;9.252;2022-10-22T11:32:38;33.70;62.80
1123;DHT22;548;48.778;9.252;2022-10-22T11:35:10;33.50;60.30
1123;DHT22;548;48.778;9.252;2022-10-22T11:37:38;33.10;60.70
1123;DHT22;548;48.778;9.252;2022-10-22T11:40:07;33.60;60.60
1123;DHT22;548;48.778;9.252;2022-10-22T11:42:36;33.40;59.90
1123;DHT22;548;48.778;9.252;2022-10-22T11:45:25;33.80;58.30
1123;DHT22;548;48.778;9.252;2022-10-22T11:47:58;34.20;57.90
1123;DHT22;548;48.778;9.252;2022-10-22T11:50:26;35.70;54.00
1123;DHT22;548;48.778;9.252;2022-10-22T11:52:59;34.50;57.20
1123;DHT22;548;48.778;9.252;2022-10-22T11:55:42;34.40;53.40
1123;DHT22;548;48.778;9.252;2022-10-22T11:58:31;32.50;56.10
1123;DHT22;548;48.778;9.252;2022-10-22T12:01:17;31.30;59.90
1123;DHT22;548;48.778;9.252;2022-10-22T12:03:48;31.70;59.60
1123;DHT22;548;48.778;9.252;2022-10-22T12:06:19;31.80;58.10
1123;DHT22;548;48.778;9.252;2022-10-22T12:08:54;32.40;57.60
1123;DHT22;548;48.778;9.252;2022-10-22T12:11:24;32.20;57.60
1123;DHT22;548;48.778;9.252;2022-10-22T12:14:01;31.60;57.90
1123;DHT22;548;48.778;9.252;2022-10-22T12:16:35;30.40;60.10
1123;DHT22;548;48.778;9.252;2022-10-22T12:19:10;28.80;64.70
1123;DHT22;548;48.778;9.252;2022-10-22T12:21:40;27.60;68.30
1123;DHT22;548;48.778;9.252;2022-10-22T12:24:12;26.90;71.10
1123;DHT22;548;48.778;9.252;2022-10-22T12:26:39;26.40;73.00
1123;DHT22;548;48.778;9.252;2022-10-22T12:29:10;26.70;73.10
1123;DHT22;548;48.778;9.252;2022-10-22T12:31:40;26.40;70.80
1123;DHT22;548;48.778;9.252;2022-10-22T12:34:13;26.00;71.20
1123;DHT22;548;48.778;9.252;2022-10-22T12:36:40;24.90;74.30
1123;DHT22;548;48.778;9.252;2022-10-22T12:39:11;24.50;77.80
1123;DHT22;548;48.778;9.252;2022-10-22T12:41:38;24.40;80.10
1123;DHT22;548;48.778;9.252;2022-10-22T12:44:05;24.30;82.10
1123;DHT22;548;48.778;9.252;2022-10-22T12:46:33;24.10;84.10
1123;DHT22;548;48.778;9.252;2022-10-22T12:49:04;24.20;82.50
1123;DHT22;548;48.778;9.252;2022-10-22T12:51:32;23.90;82.30
1123;DHT22;548;48.778;9.252;2022-10-22T12:54:02;25.20;80.80
1123;DHT22;548;48.778;9.252;2022-10-22T12:56:31;27.20;75.10
1123;DHT22;548;48.778;9.252;2022-10-22T12:59:00;28.90;69.50
1123;DHT22;548;48.778;9.252;2022-10-22T13:01:33;29.80;67.00
1123;DHT22;548;48.778;9.252;2022-10-22T13:04:12;29.80;65.80
1123;DHT22;548;48.778;9.252;2022-10-22T13:06:43;29.80;65.00
1123;DHT22;548;48.778;9.252;2022-10-22T13:09:13;28.10;67.60
1123;DHT22;548;48.778;9.252;2022-10-22T13:11:48;26.70;71.20
1123;DHT22;548;48.778;9.252;2022-10-22T13:14:20;25.30;93.20
1123;DHT22;548;48.778;9.252;2022-10-22T13:17:11;25.30;77.30
1123;DHT22;548;48.778;9.252;2022-10-22T13:19:43;24.60;80.20
1123;DHT22;548;48.778;9.252;2022-10-22T13:22:31;23.70;83.30
1123;DHT22;548;48.778;9.252;2022-10-22T13:25:20;23.60;84.00
1123;DHT22;548;48.778;9.252;2022-10-22T13:27:51;23.10;88.20
1123;DHT22;548;48.778;9.252;2022-10-22T13:30:20;22.60;89.20
1123;DHT22;548;48.778;9.252;2022-10-22T13:32:49;22.30;90.60
1123;DHT22;548;48.778;9.252;2022-10-22T13:35:19;22.40;99.90
1123;DHT22;548;48.778;9.252;2022-10-22T13:37:46;22.40;99.90
1123;DHT22;548;48.778;9.252;2022-10-22T13:40:14;22.50;99.90
1123;DHT22;548;48.778;9.252;2022-10-22T13:42:40;22.30;99.90
1123;DHT22;548;48.778;9.252;2022-10-22T13:47:36;22.40;99.90
1123;DHT22;548;48.778;9.252;2022-10-22T13:50:06;22.40;99.90
1123;DHT22;548;48.778;9.252;2022-10-22T13:52:40;22.50;97.60
1123;DHT22;548;48.778;9.252;2022-10-22T13:55:19;22.60;99.90
1123;DHT22;548;48.778;9.252;2022-10-22T13:57:46;22.80;96.60
1123;DHT22;548;48.778;9.252;2022-10-22T14:00:16;22.90;99.90
1123;DHT22;548;48.778;9.252;2022-10-22T14:02:46;23.20;90.60
1123;DHT22;548;48.778;9.252;2022-10-22T14:05:14;23.10;90.70
1123;DHT22;548;48.778;9.252;2022-10-22T14:07:41;23.20;99.90
1123;DHT22;548;48.778;9.252;2022-10-22T14:10:17;22.80;92.80
1123;DHT22;548;48.778;9.252;2022-10-22T14:15:13;22.20;99.90
1123;DHT22;548;48.778;9.252;2022-10-22T14:17:43;22.10;97.40
1123;DHT22;548;48.778;9.252;2022-10-22T14:20:15;22.00;99.90
1123;DHT22;548;48.778;9.252;2022-10-22T14:25:13;21.50;99.90
1123;DHT22;548;48.778;9.252;2022-10-22T14:27:40;21.40;99.90
1123;DHT22;548;48.778;9.252;2022-10-22T14:30:08;21.60;93.40
1123;DHT22;548;48.778;9.252;2022-10-22T14:32:38;21.70;99.90
1123;DHT22;548;48.778;9.252;2022-10-22T14:35:10;21.60;99.90
1123;DHT22;548;48.778;9.252;2022-10-22T14:37:37;21.60;99.90
1123;DHT22;548;48.778;9.252;2022-10-22T14:40:05;21.50;96.40
1123;DHT22;548;48.778;9.252;2022-10-22T14:42:33;21.40;99.90
1123;DHT22;548;48.778;9.252;2022-10-22T14:45:03;21.10;99.90
1123;DHT22;548;48.778;9.252;2022-10-22T14:47:30;21.20;93.90
1123;DHT22;548;48.778;9.252;2022-10-22T14:49:57;21.10;93.80
1123;DHT22;548;48.778;9.252;2022-10-22T14:52:25;21.00;94.40
1123;DHT22;548;48.778;9.252;2022-10-22T14:54:51;20.90;94.50
1123;DHT22;548;48.778;9.252;2022-10-22T14:59:45;20.60;97.30
1123;DHT22;548;48.778;9.252;2022-10-22T15:02:12;20.80;95.50
1123;DHT22;548;48.778;9.252;2022-10-22T15:04:39;21.00;99.90
1123;DHT22;548;48.778;9.252;2022-10-22T15:07:08;20.90;95.80
1123;DHT22;548;48.778;9.252;2022-10-22T15:09:36;20.90;96.20
1123;DHT22;548;48.778;9.252;2022-10-22T15:12:03;20.90;96.40
1123;DHT22;548;48.778;9.252;2022-10-22T15:14:29;20.80;96.40
1123;DHT22;548;48.778;9.252;2022-10-22T15:16:57;20.80;96.10
1123;DHT22;548;48.778;9.252;2022-10-22T15:19:24;20.80;96.20
1123;DHT22;548;48.778;9.252;2022-10-22T15:21:51;20.80;96.50
1123;DHT22;548;48.778;9.252;2022-10-22T15:26:46;20.70;96.70
1123;DHT22;548;48.778;9.252;2022-10-22T15:29:12;20.70;97.10
1123;DHT22;548;48.778;9.252;2022-10-22T15:31:47;20.50;99.90
1123;DHT22;548;48.778;9.252;2022-10-22T15:34:18;20.50;99.10
1123;DHT22;548;48.778;9.252;2022-10-22T15:36:45;20.20;99.90
1123;DHT22;548;48.778;9.252;2022-10-22T15:44:10;20.00;99.90
1123;DHT22;548;48.778;9.252;2022-10-22T15:46:39;19.60;99.90
1123;DHT22;548;48.778;9.252;2022-10-22T15:49:06;19.60;99.90
1123;DHT22;548;48.778;9.252;2022-10-22T15:51:33;19.60;99.90
1123;DHT22;548;48.778;9.252;2022-10-22T15:54:00;19.30;99.90
1123;DHT22;548;48.778;9.252;2022-10-22T15:56:28;19.50;99.90
1123;DHT22;548;48.778;9.252;2022-10-22T15:58:57;19.30;99.90
1123;DHT22;548;48.778;9.252;2022-10-22T16:01:26;19.10;99.90
1123;DHT22;548;48.778;9.252;2022-10-22T16:03:53;18.90;99.90
1123;DHT22;548;48.778;9.252;2022-10-22T16:06:27;18.80;99.90
1123;DHT22;548;48.778;9.252;2022-10-22T16:08:56;18.80;99.90
1123;DHT22;548;48.778;9.252;2022-10-22T16:13:52;18.40;99.90
1123;DHT22;548;48.778;9.252;2022-10-22T16:16:19;18.50;99.90
1123;DHT22;548;48.778;9.252;2022-10-22T16:21:16;17.80;99.90
1123;DHT22;548;48.778;9.252;2022-10-22T16:23:47;18.00;99.90
1123;DHT22;548;48.778;9.252;2022-10-22T16:26:15;17.90;99.90
1123;DHT22;548;48.778;9.252;2022-10-22T16:28:43;17.60;99.90
1123;DHT22;548;48.778;9.252;2022-10-22T16:31:12;17.60;99.90
1123;DHT22;548;48.778;9.252;2022-10-22T16:33:40;17.60;99.90
1123;DHT22;548;48.778;9.252;2022-10-22T16:36:10;16.40;99.90
1123;DHT22;548;48.778;9.252;2022-10-22T16:41:08;17.40;99.90
1123;DHT22;548;48.778;9.252;2022-10-22T16:46:02;17.20;99.90
1123;DHT22;548;48.778;9.252;2022-10-22T16:48:30;17.20;99.90
1123;DHT22;548;48.778;9.252;2022-10-22T16:50:58;17.00;99.90
1123;DHT22;548;48.778;9.252;2022-10-22T16:53:29;17.30;99.90
1123;DHT22;548;48.778;9.252;2022-10-22T17:05:44;16.90;99.90
1123;DHT22;548;48.778;9.252;2022-10-22T17:08:11;16.30;99.90
1123;DHT22;548;48.778;9.252;2022-10-22T17:10:40;16.30;99.90
1123;DHT22;548;48.778;9.252;2022-10-22T17:13:07;16.30;99.90
1123;DHT22;548;48.778;9.252;2022-10-22T17:15:33;16.20;99.90
1123;DHT22;548;48.778;9.252;2022-10-22T17:18:00;16.20;99.90
1123;DHT22;548;48.778;9.252;2022-10-22T17:20:28;16.20;99.90
1123;DHT22;548;48.778;9.252;2022-10-22T17:22:55;16.10;99.90
1123;DHT22;548;48.778;9.252;2022-10-22T17:25:23;16.00;99.90
1123;DHT22;548;48.778;9.252;2022-10-22T17:27:52;16.00;99.90
1123;DHT22;548;48.778;9.252;2022-10-22T17:30:19;15.80;99.90
1123;DHT22;548;48.778;9.252;2022-10-22T17:32:47;15.80;99.90
1123;DHT22;548;48.778;9.252;2022-10-22T17:35:14;15.70;99.90
1123;DHT22;548;48.778;9.252;2022-10-22T17:37:44;15.60;99.90
1123;DHT22;548;48.778;9.252;2022-10-22T17:40:13;15.70;99.90
1123;DHT22;548;48.778;9.252;2022-10-22T17:42:39;15.70;99.90
1123;DHT22;548;48.778;9.252;2022-10-22T17:45:08;15.50;99.90
1123;DHT22;548;48.778;9.252;2022-10-22T17:47:35;15.60;99.90
1123;DHT22;548;48.778;9.252;2022-10-22T17:52:29;15.40;99.90
1123;DHT22;548;48.778;9.252;2022-10-22T17:54:56;15.30;99.90
1123;DHT22;548;48.778;9.252;2022-10-22T17:57:23;15.30;99.90
1123;DHT22;548;48.778;9.252;2022-10-22T17:59:49;15.30;99.90
1123;DHT22;548;48.778;9.252;2022-10-22T18:02:17;15.20;99.90
1123;DHT22;548;48.778;9.252;2022-10-22T18:07:11;15.20;99.90
1123;DHT22;548;48.778;9.252;2022-10-22T18:09:39;15.10;99.90
1123;DHT22;548;48.778;9.252;2022-10-22T18:12:07;15.00;99.90
1123;DHT22;548;48.778;9.252;2022-10-22T18:14:35;15.10;99.90
1123;DHT22;548;48.778;9.252;2022-10-22T18:17:02;15.00;99.90
1123;DHT22;548;48.778;9.252;2022-10-22T18:19:30;15.10;99.90
1123;DHT22;548;48.778;9.252;2022-10-22T18:21:57;15.00;99.90
1123;DHT22;548;48.778;9.252;2022-10-22T18:24:25;15.00;99.90
1123;DHT22;548;48.778;9.252;2022-10-22T18:26:52;14.90;99.90
1123;DHT22;548;48.778;9.252;2022-10-22T18:29:19;14.90;99.90
1123;DHT22;548;48.778;9.252;2022-10-22T18:31:46;14.90;99.90
1123;DHT22;548;48.778;9.252;2022-10-22T18:34:13;14.90;99.90
1123;DHT22;548;48.778;9.252;2022-10-22T18:36:41;14.90;99.90
1123;DHT22;548;48.778;9.252;2022-10-22T18:39:11;14.90;99.90
1123;DHT22;548;48.778;9.252;2022-10-22T18:44:10;14.80;99.90
1123;DHT22;548;48.778;9.252;2022-10-22T18:46:37;14.80;99.90
1123;DHT22;548;48.778;9.252;2022-10-22T18:49:05;14.80;99.90
1123;DHT22;548;48.778;9.252;2022-10-22T18:51:33;14.80;99.90
1123;DHT22;548;48.778;9.252;2022-10-22T18:54:02;14.80;99.90
1123;DHT22;548;48.778;9.252;2022-10-22T18:56:29;14.80;99.90
1123;DHT22;548;48.778;9.252;2022-10-22T18:58:56;14.80;99.90
1123;DHT22;548;48.778;9.252;2022-10-22T19:01:24;14.80;99.90
1123;DHT22;548;48.778;9.252;2022-10-22T19:03:52;14.80;99.90
1123;DHT22;548;48.778;9.252;2022-10-22T19:06:24;14.80;99.90
1123;DHT22;548;48.778;9.252;2022-10-22T19:08:53;14.70;99.90
1123;DHT22;548;48.778;9.252;2022-10-22T19:11:22;14.70;99.90
1123;DHT22;548;48.778;9.252;2022-10-22T19:13:48;14.60;99.90
1123;DHT22;548;48.778;9.252;2022-10-22T19:16:17;14.60;99.90
1123;DHT22;548;48.778;9.252;2022-10-22T19:18:49;14.60;99.90
1123;DHT22;548;48.778;9.252;2022-10-22T19:21:16;14.50;99.90
1123;DHT22;548;48.778;9.252;2022-10-22T19:23:43;14.50;99.90
1123;DHT22;548;48.778;9.252;2022-10-22T19:26:12;14.50;99.90
1123;DHT22;548;48.778;9.252;2022-10-22T19:28:41;14.40;99.90
1123;DHT22;548;48.778;9.252;2022-10-22T19:31:10;14.40;99.90
1123;DHT22;548;48.778;9.252;2022-10-22T19:33:38;14.40;99.90
1123;DHT22;548;48.778;9.252;2022-10-22T19:36:06;14.40;99.90
1123;DHT22;548;48.778;9.252;2022-10-22T19:38:33;14.40;99.90
1123;DHT22;548;48.778;9.252;2022-10-22T19:41:00;14.40;99.90
1123;DHT22;548;48.778;9.252;2022-10-22T19:43:27;14.40;99.90
1123;DHT22;548;48.778;9.252;2022-10-22T19:45:55;14.40;99.90
1123;DHT22;548;48.778;9.252;2022-10-22T19:48:22;14.40;99.90
1123;DHT22;548;48.778;9.252;2022-10-22T19:50:49;14.50;99.90